.
WxDataArchive / Data Records for 2016-05-19
2016-05-18 May 2016 2016-05-20

Data Records for Thursday, 19 May 2016

Time	Temp	Chill	HIndex	Humid	Dewpt	 Wind 	HiWind	WindDir	Rain 	Barom
-----	----	-----	------	-----	-----	------	------	-------	-----	-----
00:00	47.6	47.6	47.6	75	40.1	0	0	---	0.00	30.149 
00:05	47.4	47.4	47.4	76	40.2	0	0	---	0.00	30.149 
00:10	47.3	47.3	47.3	77	40.5	0	1	90	0.00	30.149 
00:15	47.1	47.1	47.1	78	40.6	0	0	---	0.00	30.154 
00:20	47.1	47.1	47.1	78	40.6	0	0	---	0.00	30.154 
00:25	47.0	47.0	47.0	78	40.5	0	0	---	0.00	30.154 
00:30	46.8	46.8	46.8	79	40.6	0	0	---	0.00	30.155 
00:35	46.7	46.7	46.7	80	40.9	0	0	---	0.00	30.155 
00:40	46.5	46.5	46.5	80	40.7	0	0	---	0.00	30.155 
00:45	46.4	46.4	46.4	80	40.6	0	0	---	0.00	30.156 
00:50	46.2	46.2	46.2	80	40.4	0	0	---	0.00	30.156 
00:55	46.1	46.1	46.1	80	40.3	0	0	---	0.00	30.156 
01:00	46.0	46.0	46.0	81	40.5	0	0	---	0.00	30.155 
01:05	45.7	45.7	45.7	81	40.2	0	0	---	0.00	30.155 
01:10	45.7	45.7	45.7	81	40.2	0	0	---	0.00	30.155 
01:15	45.4	45.4	45.4	82	40.2	0	0	---	0.00	30.155 
01:20	45.4	45.4	45.4	82	40.2	0	0	---	0.00	30.155 
01:25	45.2	45.2	45.2	82	40.0	0	0	---	0.00	30.155 
01:30	45.1	45.1	45.1	83	40.3	0	0	---	0.00	30.158 
01:35	44.9	44.9	44.9	83	40.1	0	0	---	0.00	30.158 
01:40	44.8	44.8	44.8	84	40.3	0	0	---	0.00	30.158 
01:45	44.8	44.8	44.8	84	40.3	0	0	---	0.00	30.157 
01:50	44.6	44.6	44.6	84	40.1	0	0	---	0.00	30.157 
01:55	44.6	44.6	44.6	84	40.1	0	0	---	0.00	30.157 
02:00	44.5	44.5	44.5	84	40.0	0	0	---	0.00	30.158 
02:05	44.2	44.2	44.2	84	39.7	0	0	---	0.00	30.158 
02:10	44.2	44.2	44.2	85	40.0	0	0	---	0.00	30.158 
02:15	44.1	44.1	44.1	85	39.9	0	0	---	0.00	30.158 
02:20	43.9	43.9	43.9	85	39.7	0	0	---	0.00	30.158 
02:25	43.8	43.8	43.8	85	39.6	0	0	---	0.00	30.158 
02:30	43.8	43.8	43.8	85	39.6	0	0	---	0.00	30.155 
02:35	43.6	43.6	43.6	85	39.4	0	0	---	0.00	30.155 
02:40	43.6	43.6	43.6	86	39.7	0	0	---	0.00	30.155 
02:45	43.5	43.5	43.5	86	39.6	0	0	---	0.00	30.153 
02:50	43.3	43.3	43.3	86	39.4	0	0	---	0.00	30.153 
02:55	43.3	43.3	43.3	86	39.4	0	0	---	0.00	30.153 
03:00	43.3	43.3	43.3	87	39.7	0	0	---	0.00	30.150 
03:05	43.3	43.3	43.3	87	39.7	0	0	---	0.00	30.150 
03:10	43.3	43.3	43.3	87	39.7	0	0	---	0.00	30.150 
03:15	43.3	43.3	43.3	87	39.7	0	0	---	0.00	30.145 
03:20	43.3	43.3	43.3	87	39.7	0	0	---	0.00	30.145 
03:25	43.3	43.3	43.3	87	39.7	0	0	---	0.00	30.145 
03:30	43.2	43.2	43.2	87	39.6	0	0	---	0.00	30.143 
03:35	43.1	43.1	43.1	87	39.5	0	0	---	0.00	30.143 
03:40	43.1	43.1	43.1	87	39.5	0	0	---	0.00	30.143 
03:45	43.1	43.1	43.1	87	39.5	0	0	---	0.00	30.142 
03:50	42.9	42.9	42.9	87	39.3	0	0	---	0.00	30.142 
03:55	42.8	42.8	42.8	87	39.2	0	0	---	0.00	30.142 
04:00	42.6	42.6	42.6	87	39.0	0	0	---	0.00	30.143 
04:05	42.6	42.6	42.6	87	39.0	0	0	---	0.00	30.143 
04:10	42.5	42.5	42.5	88	39.2	0	0	---	0.00	30.143 
04:15	42.3	42.3	42.3	88	39.0	0	0	---	0.00	30.147 
04:20	42.2	42.2	42.2	88	38.9	0	0	---	0.00	30.147 
04:25	42.2	42.2	42.2	88	38.9	0	0	---	0.00	30.147 
04:30	42.1	42.1	42.1	88	38.8	0	0	---	0.00	30.148 
04:35	41.9	41.9	41.9	88	38.6	0	0	---	0.00	30.148 
04:40	41.9	41.9	41.9	88	38.6	0	0	---	0.00	30.148 
04:45	41.8	41.8	41.8	88	38.5	0	0	---	0.00	30.148 
04:50	41.6	41.6	41.6	88	38.3	0	0	---	0.00	30.148 
04:55	41.5	41.5	41.5	89	38.5	0	0	---	0.00	30.148 
05:00	41.5	41.5	41.5	89	38.5	0	0	---	0.00	30.146 
05:05	41.3	41.3	41.3	89	38.3	0	0	---	0.00	30.146 
05:10	41.3	41.3	41.3	89	38.3	0	0	---	0.00	30.146 
05:15	41.2	41.2	41.2	89	38.2	0	0	---	0.00	30.150 
05:20	41.2	41.2	41.2	89	38.2	0	0	---	0.00	30.150 
05:25	41.1	41.1	41.1	90	38.4	0	0	---	0.00	30.150 
05:30	41.1	41.1	41.1	90	38.4	0	0	---	0.00	30.153 
05:35	40.9	40.9	40.9	90	38.2	0	0	---	0.00	30.153 
05:40	40.9	40.9	40.9	90	38.2	0	0	---	0.00	30.153 
05:45	40.8	40.8	40.8	90	38.1	0	0	---	0.00	30.156 
05:50	40.8	40.8	40.8	90	38.1	0	0	---	0.00	30.156 
05:55	40.8	40.8	40.8	90	38.1	0	0	---	0.00	30.156 
06:00	40.8	40.8	40.8	90	38.1	0	0	---	0.00	30.158 
06:05	40.6	40.6	40.6	91	38.2	0	0	---	0.00	30.158 
06:10	40.6	40.6	40.6	91	38.2	0	0	---	0.00	30.158 
06:15	40.6	40.6	40.6	91	38.2	0	0	---	0.00	30.162 
06:20	40.6	40.6	40.6	91	38.2	0	0	---	0.00	30.162 
06:25	40.6	40.6	40.6	91	38.2	0	0	---	0.00	30.162 
06:30	40.5	40.5	40.5	91	38.1	0	0	---	0.00	30.163 
06:35	40.5	40.5	40.5	91	38.1	0	0	---	0.00	30.163 
06:40	40.5	40.5	40.5	91	38.1	0	0	---	0.00	30.163 
06:45	40.5	40.5	40.5	91	38.1	0	0	---	0.00	30.166 
06:50	40.6	40.6	40.6	91	38.2	0	0	---	0.00	30.166 
06:55	40.8	40.8	40.8	91	38.4	0	0	---	0.00	30.166 
07:00	40.8	40.8	40.8	91	38.4	0	0	---	0.00	30.175 
07:05	40.9	40.9	40.9	92	38.8	0	0	---	0.00	30.175 
07:10	41.2	41.2	41.2	92	39.1	0	0	---	0.00	30.175 
07:15	41.5	41.5	41.5	92	39.4	0	0	---	0.00	30.178 
07:20	41.9	41.9	41.9	92	39.7	0	0	---	0.00	30.178 
07:25	42.3	42.3	42.3	92	40.1	0	0	---	0.00	30.178 
07:30	42.8	42.8	42.8	92	40.6	0	0	---	0.00	30.182 
07:35	43.2	43.2	43.2	92	41.0	0	0	---	0.00	30.182 
07:40	44.2	44.2	44.2	93	42.3	0	0	---	0.00	30.182 
07:45	44.9	44.9	44.9	92	42.7	0	0	---	0.00	30.185 
07:50	45.8	45.8	45.8	92	43.6	0	0	---	0.00	30.185 
07:55	47.4	47.4	47.4	92	45.2	0	0	---	0.00	30.185 
08:00	49.4	49.4	49.4	85	45.1	0	0	---	0.00	30.182 
08:05	50.8	50.8	50.8	78	44.2	0	0	---	0.00	30.182 
08:10	52.3	52.3	52.3	74	44.3	0	0	---	0.00	30.182 
08:15	53.9	53.9	53.9	69	44.0	0	0	---	0.00	30.177 
08:20	55.1	55.1	55.1	64	43.1	0	0	---	0.00	30.177 
08:25	55.9	55.9	55.9	61	42.6	0	0	---	0.00	30.177 
08:30	56.3	56.3	56.3	60	42.6	0	0	---	0.00	30.177 
08:35	56.7	56.7	56.7	60	43.0	0	0	---	0.00	30.177 
08:40	57.2	57.2	57.2	57	42.1	0	0	---	0.00	30.177 
08:45	57.6	57.6	57.6	58	42.9	0	0	---	0.00	30.178 
08:50	58.1	58.1	58.1	60	44.3	0	0	---	0.00	30.178 
08:55	58.4	58.4	58.4	58	43.7	0	0	---	0.00	30.178 
09:00	58.9	58.9	58.9	59	44.6	0	1	90	0.00	30.177 
09:05	59.3	59.3	59.3	57	44.1	0	2	90	0.00	30.177 
09:10	59.8	59.8	59.8	57	44.5	0	2	90	0.00	30.177 
09:15	60.4	60.4	60.4	55	44.2	0	1	90	0.00	30.183 
09:20	61.2	61.2	61.2	54	44.4	0	1	90	0.00	30.183 
09:25	61.8	61.8	61.8	51	43.5	0	1	90	0.00	30.183 
09:30	62.7	62.7	62.7	49	43.3	0	1	90	0.00	30.185 
09:35	63.2	63.2	63.2	50	44.2	0	3	90	0.00	30.185 
09:40	63.5	63.5	63.5	46	42.3	0	1	90	0.00	30.185 
09:45	63.9	63.9	63.9	46	42.7	0	2	90	0.00	30.189 
09:50	63.7	63.7	63.7	44	41.4	0	1	90	0.00	30.189 
09:55	63.7	63.7	63.7	41	39.6	0	2	90	0.00	30.189 
10:00	64.0	64.0	64.0	44	41.6	0	2	90	0.00	30.189 
10:05	64.3	64.3	64.3	42	40.7	0	1	90	0.00	30.189 
10:10	65.0	65.0	65.0	40	40.1	0	0	---	0.00	30.189 
10:15	65.6	65.6	65.6	42	41.9	0	1	90	0.00	30.195 
10:20	65.6	65.6	65.6	38	39.3	0	1	90	0.00	30.195 
10:25	65.6	65.6	65.6	35	37.2	0	3	90	0.00	30.195 
10:30	65.3	65.3	65.3	35	36.9	0	2	90	0.00	30.193 
10:35	65.5	65.5	65.5	37	38.5	0	1	90	0.00	30.193 
10:40	64.7	64.7	64.7	39	39.2	0	1	90	0.00	30.193 
10:45	64.5	64.5	64.5	42	40.9	0	1	90	0.00	30.191 
10:50	64.5	64.5	64.5	37	37.6	0	2	90	0.00	30.191 
10:55	64.5	64.5	64.5	36	36.9	0	2	90	0.00	30.191 
11:00	64.8	64.8	64.8	41	40.5	0	1	90	0.00	30.187 
11:05	64.8	64.8	64.8	38	38.6	0	2	45	0.00	30.187 
11:10	65.0	65.0	65.0	38	38.8	1	3	45	0.00	30.187 
11:15	65.3	65.3	65.3	36	37.7	1	4	90	0.00	30.188 
11:20	65.3	65.3	65.3	38	39.0	0	1	90	0.00	30.188 
11:25	65.8	65.8	65.8	37	38.8	0	3	90	0.00	30.188 
11:30	66.3	66.3	66.3	38	39.9	0	3	90	0.00	30.184 
11:35	66.6	66.6	66.6	38	40.2	1	4	90	0.00	30.184 
11:40	66.9	66.9	66.9	37	39.8	1	2	90	0.00	30.184 
11:45	66.6	66.6	66.6	36	38.8	0	3	0	0.00	30.184 
11:50	66.8	66.8	66.8	37	39.7	1	4	112	0.00	30.184 
11:55	66.8	66.8	66.8	34	37.5	1	3	112	0.00	30.184 
12:00	66.8	66.8	66.8	33	36.8	1	4	112	0.00	30.184 
12:05	66.9	66.9	66.9	33	36.9	0	4	112	0.00	30.184 
12:10	67.1	67.1	67.1	33	37.0	0	3	112	0.00	30.184 
12:15	67.3	67.3	67.3	35	38.7	1	3	112	0.00	30.185 
12:20	67.6	67.6	67.6	33	37.5	0	2	112	0.00	30.185 
12:25	67.8	67.8	67.8	31	36.1	1	4	112	0.00	30.185 
12:30	67.6	67.6	67.6	32	36.7	1	4	112	0.00	30.186 
12:35	67.8	67.8	67.8	31	36.1	0	1	112	0.00	30.186 
12:40	67.4	67.4	67.4	33	37.3	0	1	112	0.00	30.186 
12:45	67.1	67.1	67.1	35	38.5	1	5	90	0.00	30.186 
12:50	67.1	67.1	67.1	31	35.4	1	4	90	0.00	30.186 
12:55	67.1	67.1	67.1	33	37.0	1	4	90	0.00	30.186 
13:00	67.1	67.1	67.1	36	39.2	0	1	90	0.00	30.181 
13:05	67.4	67.4	67.4	32	36.5	1	4	112	0.00	30.181 
13:10	67.8	67.8	67.8	30	35.2	1	5	112	0.00	30.181 
13:15	67.8	67.8	67.8	32	36.9	0	3	45	0.00	30.178 
13:20	67.8	67.8	67.8	36	39.9	0	1	45	0.00	30.178 
13:25	67.9	67.9	67.9	35	39.2	1	4	90	0.00	30.178 
13:30	67.9	67.9	67.9	35	39.2	1	3	68	0.00	30.176 
13:35	67.6	67.6	67.6	31	35.9	2	5	90	0.00	30.176 
13:40	67.3	67.3	67.3	31	35.6	0	2	68	0.00	30.176 
13:45	67.3	67.3	67.3	31	35.6	0	1	68	0.00	30.174 
13:50	67.8	67.8	67.8	34	38.4	0	6	68	0.00	30.174 
13:55	68.1	68.1	68.1	29	34.6	0	6	112	0.00	30.174 
14:00	68.6	68.6	68.6	28	34.2	1	4	112	0.00	30.169 
14:05	68.9	68.9	68.9	34	39.4	1	4	112	0.00	30.169 
14:10	68.6	68.6	68.6	30	35.9	0	4	90	0.00	30.169 
14:15	68.3	68.3	68.3	28	33.9	0	4	0	0.00	30.169 
14:20	67.8	67.8	67.8	27	32.6	1	3	315	0.00	30.169 
14:25	67.9	67.9	67.9	31	36.1	0	3	315	0.00	30.169 
14:30	68.4	68.4	68.4	32	37.4	1	4	68	0.00	30.160 
14:35	68.9	68.9	68.9	31	37.0	2	5	112	0.00	30.160 
14:40	69.1	69.1	69.1	33	38.8	1	4	90	0.00	30.160 
14:45	69.1	69.1	69.1	29	35.5	1	3	90	0.00	30.157 
14:50	69.3	69.3	69.3	29	35.7	1	4	90	0.00	30.157 
14:55	69.1	69.1	69.1	35	40.3	1	3	112	0.00	30.157 
15:00	68.8	68.8	68.8	28	34.4	0	2	112	0.00	30.149 
15:05	69.1	69.1	69.1	29	35.5	0	3	112	0.00	30.149 
15:10	69.4	69.4	69.4	34	39.8	0	2	112	0.00	30.149 
15:15	69.6	69.6	69.6	32	38.4	1	3	112	0.00	30.142 
15:20	69.9	69.9	69.9	29	36.2	0	3	112	0.00	30.142 
15:25	70.4	70.4	70.4	31	38.3	0	2	112	0.00	30.142 
15:30	70.4	70.4	70.4	27	34.8	0	3	112	0.00	30.140 
15:35	70.9	70.9	70.9	34	41.1	0	2	158	0.00	30.140 
15:40	71.1	71.1	71.1	33	40.5	1	5	90	0.00	30.140 
15:45	71.5	71.5	71.5	29	37.6	0	4	90	0.00	30.137 
15:50	71.3	71.3	71.3	28	36.5	1	3	90	0.00	30.137 
15:55	71.1	71.1	71.1	31	38.9	0	2	180	0.00	30.137 
16:00	70.6	70.6	70.6	31	38.5	1	5	112	0.00	30.135 
16:05	70.4	70.4	70.4	32	39.1	0	3	112	0.00	30.135 
16:10	70.6	70.6	70.6	29	36.8	0	1	112	0.00	30.135 
16:15	70.6	70.6	70.6	28	35.9	1	3	315	0.00	30.133 
16:20	70.3	70.3	70.3	32	39.0	1	4	292	0.00	30.133 
16:25	70.4	70.4	70.4	32	39.1	0	2	292	0.00	30.133 
16:30	70.3	70.3	70.3	29	36.5	1	5	135	0.00	30.136 
16:35	70.3	70.3	70.3	27	34.7	0	1	135	0.00	30.136 
16:40	70.3	70.3	70.3	31	38.2	0	1	135	0.00	30.136 
16:45	70.4	70.4	70.4	33	39.9	0	3	135	0.00	30.132 
16:50	70.4	70.4	70.4	34	40.7	0	2	135	0.00	30.132 
16:55	70.3	70.3	70.3	29	36.5	0	3	45	0.00	30.132 
17:00	70.3	70.3	70.3	29	36.5	0	2	45	0.00	30.128 
17:05	70.3	70.3	70.3	27	34.7	0	2	45	0.00	30.128 
17:10	70.6	70.6	70.6	31	38.5	0	1	22	0.00	30.128 
17:15	70.9	70.9	70.9	27	35.2	0	3	112	0.00	30.129 
17:20	70.9	70.9	70.9	30	37.9	0	3	112	0.00	30.129 
17:25	70.8	70.8	70.8	30	37.8	1	2	112	0.00	30.129 
17:30	70.4	70.4	70.4	29	36.6	0	2	112	0.00	30.133 
17:35	70.4	70.4	70.4	29	36.6	0	2	112	0.00	30.133 
17:40	70.3	70.3	70.3	29	36.5	1	3	112	0.00	30.133 
17:45	69.9	69.9	69.9	31	37.9	0	3	112	0.00	30.136 
17:50	69.6	69.6	69.6	30	36.8	0	1	112	0.00	30.136 
17:55	69.4	69.4	69.4	31	37.4	0	3	112	0.00	30.136 
18:00	69.3	69.3	69.3	33	39.0	0	2	90	0.00	30.129 
18:05	69.3	69.3	69.3	29	35.7	1	3	90	0.00	30.129 
18:10	69.3	69.3	69.3	33	39.0	0	2	112	0.00	30.129 
18:15	69.1	69.1	69.1	29	35.5	1	3	112	0.00	30.140 
18:20	68.9	68.9	68.9	31	37.0	1	3	158	0.00	30.140 
18:25	68.9	68.9	68.9	29	35.3	0	2	180	0.00	30.140 
18:30	68.9	68.9	68.9	32	37.8	0	1	180	0.00	30.139 
18:35	68.8	68.8	68.8	31	36.9	0	3	158	0.00	30.139 
18:40	68.8	68.8	68.8	30	36.1	0	3	158	0.00	30.139 
18:45	68.4	68.4	68.4	28	34.0	0	2	158	0.00	30.142 
18:50	68.4	68.4	68.4	31	36.6	0	0	---	0.00	30.142 
18:55	68.4	68.4	68.4	33	38.2	0	2	158	0.00	30.142 
19:00	68.3	68.3	68.3	32	37.3	0	2	158	0.00	30.140 
19:05	68.3	68.3	68.3	32	37.3	0	2	158	0.00	30.140 
19:10	68.1	68.1	68.1	31	36.3	0	2	158	0.00	30.140 
19:15	67.9	67.9	67.9	31	36.1	0	2	158	0.00	30.131 
19:20	67.9	67.9	67.9	31	36.1	0	3	158	0.00	30.131 
19:25	67.8	67.8	67.8	31	36.1	0	1	158	0.00	30.131 
19:30	67.8	67.8	67.8	31	36.1	0	1	158	0.00	30.133 
19:35	67.6	67.6	67.6	32	36.7	0	2	158	0.00	30.133 
19:40	67.6	67.6	67.6	32	36.7	0	1	158	0.00	30.133 
19:45	67.4	67.4	67.4	32	36.5	0	1	158	0.00	30.127 
19:50	67.4	67.4	67.4	35	38.8	0	1	158	0.00	30.127 
19:55	67.3	67.3	67.3	35	38.7	0	1	158	0.00	30.127 
20:00	67.1	67.1	67.1	35	38.5	0	2	158	0.00	30.124 
20:05	66.9	66.9	66.9	35	38.4	0	1	158	0.00	30.124 
20:10	66.9	66.9	66.9	37	39.8	0	1	158	0.00	30.124 
20:15	66.6	66.6	66.6	36	38.8	0	0	---	0.00	30.120 
20:20	66.4	66.4	66.4	36	38.6	0	0	---	0.00	30.120 
20:25	66.3	66.3	66.3	37	39.2	0	0	---	0.00	30.120 
20:30	66.0	66.0	66.0	37	39.0	0	0	---	0.00	30.117 
20:35	65.6	65.6	65.6	38	39.3	0	0	---	0.00	30.117 
20:40	65.3	65.3	65.3	39	39.7	0	0	---	0.00	30.117 
20:45	64.8	64.8	64.8	40	39.9	0	0	---	0.00	30.117 
20:50	64.5	64.5	64.5	41	40.3	0	0	---	0.00	30.117 
20:55	63.9	63.9	63.9	42	40.4	0	0	---	0.00	30.117 
21:00	63.4	63.4	63.4	43	40.5	0	0	---	0.00	30.120 
21:05	62.9	62.9	62.9	44	40.6	0	0	---	0.00	30.120 
21:10	62.4	62.4	62.4	47	41.9	0	0	---	0.00	30.120 
21:15	61.8	61.8	61.8	47	41.4	0	0	---	0.00	30.116 
21:20	61.3	61.3	61.3	49	42.0	0	0	---	0.00	30.116 
21:25	60.7	60.7	60.7	50	41.9	0	0	---	0.00	30.116 
21:30	60.1	60.1	60.1	51	41.9	0	0	---	0.00	30.125 
21:35	59.6	59.6	59.6	52	42.0	0	0	---	0.00	30.125 
21:40	59.2	59.2	59.2	53	42.1	0	0	---	0.00	30.125 
21:45	58.7	58.7	58.7	54	42.1	0	0	---	0.00	30.131 
21:50	58.3	58.3	58.3	55	42.2	0	0	---	0.00	30.131 
21:55	57.8	57.8	57.8	57	42.7	0	0	---	0.00	30.131 
22:00	57.5	57.5	57.5	58	42.8	0	0	---	0.00	30.136 
22:05	57.3	57.3	57.3	60	43.5	0	0	---	0.00	30.136 
22:10	57.0	57.0	57.0	61	43.7	0	0	---	0.00	30.136 
22:15	56.7	56.7	56.7	62	43.8	0	0	---	0.00	30.135 
22:20	56.5	56.5	56.5	62	43.6	0	0	---	0.00	30.135 
22:25	56.3	56.3	56.3	63	43.9	0	0	---	0.00	30.135 
22:30	55.9	55.9	55.9	63	43.5	0	0	---	0.00	30.134 
22:35	55.6	55.6	55.6	65	44.0	0	0	---	0.00	30.134 
22:40	55.3	55.3	55.3	65	43.7	0	0	---	0.00	30.134 
22:45	55.1	55.1	55.1	65	43.5	0	0	---	0.00	30.133 
22:50	54.8	54.8	54.8	66	43.7	0	0	---	0.00	30.133 
22:55	54.5	54.5	54.5	67	43.8	0	0	---	0.00	30.133 
23:00	54.4	54.4	54.4	67	43.7	0	0	---	0.00	30.141 
23:05	54.1	54.1	54.1	67	43.4	0	0	---	0.00	30.141 
23:10	53.8	53.8	53.8	68	43.5	0	0	---	0.00	30.141 
23:15	53.5	53.5	53.5	69	43.6	0	0	---	0.00	30.134 
23:20	53.3	53.3	53.3	71	44.1	0	0	---	0.00	30.134 
23:25	53.1	53.1	53.1	72	44.3	0	0	---	0.00	30.134 
23:30	52.9	52.9	52.9	73	44.5	0	0	---	0.00	30.131 
23:35	52.6	52.6	52.6	73	44.2	0	0	---	0.00	30.131 
23:40	52.5	52.5	52.5	74	44.5	0	0	---	0.00	30.131 
23:45	52.3	52.3	52.3	75	44.6	0	0	---	0.00	30.127 
23:50	52.2	52.2	52.2	75	44.5	0	0	---	0.00	30.127 
23:55	52.0	52.0	52.0	76	44.7	0	0	---	0.00	30.127 

CoCoRaHS
IN-AL-39
A2 Web Hosting
Creative Commons License
GoDaddy
search engine by freefind advanced

loaded 2018-11-19 18:44:15 • last modified 2010-11-18 10:43:29
Privacy PolicyDisclaimer
• wx.awcolley.com is powered by PmWiki v.2002016 •
• all content (unless otherwise noted) © 2018 A W Colley